createdAt,value
2022-12-08T00:00:11.943Z,99617.05
2022-12-08T00:03:00.715Z,99618.19
2022-12-08T00:05:48.854Z,99620.17
2022-12-08T00:08:36.055Z,99621.98
2022-12-08T00:11:04.755Z,99618.92
2022-12-08T00:13:33.433Z,99621.46
2022-12-08T00:16:02.318Z,99614.29
2022-12-08T00:18:30.794Z,99614.07
2022-12-08T00:21:00.194Z,99611.98
2022-12-08T00:23:29.196Z,99616.66
2022-12-08T00:25:57.666Z,99612.39
2022-12-08T00:28:26.359Z,99611.67
2022-12-08T00:30:55.138Z,99612.21
2022-12-08T00:33:24.035Z,99616.82
2022-12-08T00:35:52.924Z,99616.96
2022-12-08T00:38:22.135Z,99617.95
2022-12-08T00:40:50.807Z,99621.48
2022-12-08T00:43:19.494Z,99622.23
2022-12-08T00:45:48.365Z,99621.40
2022-12-08T00:48:17.195Z,99626.98
2022-12-08T00:50:45.954Z,99630.45
2022-12-08T00:53:14.654Z,99628.48
2022-12-08T00:55:43.841Z,99630.61
2022-12-08T00:58:12.637Z,99629.95
2022-12-08T01:00:42.832Z,99635.36
2022-12-08T01:03:12.311Z,99635.27
2022-12-08T01:05:41.355Z,99633.73
2022-12-08T01:08:10.211Z,99635.14
2022-12-08T01:10:40.050Z,99633.05
2022-12-08T01:13:08.528Z,99629.01
2022-12-08T01:15:37.733Z,99622.02
2022-12-08T01:18:06.453Z,99613.55
2022-12-08T01:20:35.112Z,99620.30
2022-12-08T01:23:03.997Z,99622.02
2022-12-08T01:25:35.857Z,99617.86
2022-12-08T01:28:04.954Z,99625.05
2022-12-08T01:30:33.760Z,99622.37
2022-12-08T01:33:02.834Z,99617.83
2022-12-08T01:35:31.925Z,99609.48
2022-12-08T01:38:00.403Z,99605.91
2022-12-08T01:40:29.091Z,99605.34
2022-12-08T01:42:57.799Z,99606.95
2022-12-08T01:45:31.794Z,99603.09
2022-12-08T01:48:11.713Z,99602.89
2022-12-08T01:50:41.324Z,99605.83
2022-12-08T01:53:13.174Z,99610.25
2022-12-08T01:55:49.524Z,99612.55
2022-12-08T01:58:28.944Z,99608.56
2022-12-08T02:00:57.545Z,99608.14
2022-12-08T02:03:34.858Z,99601.60
2022-12-08T02:06:04.274Z,99602.52
2022-12-08T02:08:33.276Z,99602.65
2022-12-08T02:11:01.850Z,99598.71
2022-12-08T02:13:32.992Z,99603.17
2022-12-08T02:16:20.162Z,99604.55
2022-12-08T02:22:14.925Z,99605.34
2022-12-08T02:24:55.915Z,99603.88
2022-12-08T02:27:34.420Z,99603.52
2022-12-08T02:30:34.926Z,99601.39
2022-12-08T02:33:09.496Z,99599.16
2022-12-08T02:36:01.317Z,99603.12
2022-12-08T02:38:44.236Z,99602.06
2022-12-08T02:41:31.968Z,99599.38
2022-12-08T02:44:09.554Z,99600.95
2022-12-08T02:46:47.158Z,99599.33
2022-12-08T02:49:17.066Z,99596.67
2022-12-08T02:51:45.655Z,99593.58
2022-12-08T02:54:15.576Z,99587.15
2022-12-08T02:57:19.775Z,99584.70
2022-12-08T03:00:07.680Z,99588.36
2022-12-08T03:02:58.291Z,99586.69
2022-12-08T03:05:54.947Z,99583.13
2022-12-08T03:08:48.836Z,99582.10
2022-12-08T03:11:22.955Z,99581.92
2022-12-08T03:13:58.044Z,99586.63
2022-12-08T03:16:31.060Z,99588.84
2022-12-08T03:19:04.559Z,99577.61
2022-12-08T03:21:34.683Z,99579.27
2022-12-08T03:24:07.869Z,99580.92
2022-12-08T03:26:47.316Z,99575.91
2022-12-08T03:29:16.093Z,99580.60
2022-12-08T03:32:23.701Z,99581.77
2022-12-08T03:34:53.935Z,99579.34
2022-12-08T03:37:22.810Z,99580.95
2022-12-08T03:39:51.618Z,99584.77
2022-12-08T03:42:20.391Z,99581.95
2022-12-08T03:44:48.996Z,99584.76
2022-12-08T03:47:17.752Z,99585.15
2022-12-08T03:49:46.347Z,99584.90
2022-12-08T03:52:14.936Z,99585.66
2022-12-08T03:54:43.503Z,99587.29
2022-12-08T03:57:12.197Z,99583.88
2022-12-08T03:59:40.896Z,99579.39
2022-12-08T04:02:09.733Z,99580.45
2022-12-08T04:04:39.706Z,99579.60
2022-12-08T04:07:08.267Z,99580.17
2022-12-08T04:09:37.176Z,99577.89
2022-12-08T04:12:06.395Z,99573.93
2022-12-08T04:14:35.141Z,99571.40
2022-12-08T04:17:04.044Z,99568.73
2022-12-08T04:19:32.919Z,99566.51
2022-12-08T04:22:01.398Z,99564.99
2022-12-08T04:24:29.982Z,99561.27
2022-12-08T04:26:58.900Z,99559.69
2022-12-08T04:29:27.675Z,99552.98
2022-12-08T04:31:56.437Z,99555.41
2022-12-08T04:34:26.308Z,99555.27
2022-12-08T04:36:54.842Z,99551.00
2022-12-08T04:39:23.636Z,99546.60
2022-12-08T04:41:53.238Z,99548.48
2022-12-08T04:44:22.035Z,99546.55
2022-12-08T04:46:50.754Z,99547.83
2022-12-08T04:49:20.273Z,99545.42
2022-12-08T04:51:49.435Z,99542.71
2022-12-08T04:54:18.029Z,99542.36
2022-12-08T04:56:46.701Z,99538.25
2022-12-08T04:59:15.264Z,99541.33
2022-12-08T05:01:44.135Z,99546.05
2022-12-08T05:04:13.049Z,99540.95
2022-12-08T05:06:41.637Z,99542.07
2022-12-08T05:09:10.623Z,99543.94
2022-12-08T05:11:48.404Z,99539.23
2022-12-08T05:14:19.494Z,99540.44
2022-12-08T05:16:48.496Z,99538.05
2022-12-08T05:19:18.376Z,99535.89
2022-12-08T05:21:47.260Z,99534.11
2022-12-08T05:24:15.855Z,99531.92
2022-12-08T05:26:44.435Z,99529.27
2022-12-08T05:29:13.134Z,99524.81
2022-12-08T05:31:42.021Z,99521.63
2022-12-08T05:34:10.916Z,99522.06
2022-12-08T05:36:39.695Z,99522.77
2022-12-08T05:39:09.143Z,99526.58
2022-12-08T05:41:37.776Z,99526.27
2022-12-08T05:44:06.665Z,99529.77
2022-12-08T05:46:35.448Z,99533.21
2022-12-08T05:49:04.487Z,99533.02
2022-12-08T05:51:33.456Z,99529.26
2022-12-08T05:54:02.636Z,99524.10
2022-12-08T05:56:31.437Z,99524.59
2022-12-08T05:59:00.735Z,99524.16
2022-12-08T06:01:31.412Z,99526.51
2022-12-08T06:04:01.735Z,99523.73
2022-12-08T06:06:30.956Z,99523.86
2022-12-08T06:08:59.757Z,99524.83
2022-12-08T06:11:30.850Z,99526.55
2022-12-08T06:14:00.023Z,99529.33
2022-12-08T06:16:29.267Z,99531.30
2022-12-08T06:18:59.335Z,99530.28
2022-12-08T06:21:27.815Z,99531.18
2022-12-08T06:23:56.815Z,99528.50
2022-12-08T06:26:25.696Z,99527.47
2022-12-08T06:28:54.698Z,99528.98
2022-12-08T06:31:26.229Z,99530.39
2022-12-08T06:33:55.956Z,99526.52
2022-12-08T06:36:26.853Z,99522.40
2022-12-08T06:38:56.476Z,99522.79
2022-12-08T06:41:25.395Z,99525.51
2022-12-08T06:43:58.067Z,99530.95
2022-12-08T06:46:27.440Z,99531.48
2022-12-08T06:48:56.450Z,99529.39
2022-12-08T06:51:26.476Z,99530.48
2022-12-08T06:53:55.565Z,99532.75
2022-12-08T06:56:28.457Z,99532.19
2022-12-08T06:58:57.136Z,99529.48
2022-12-08T07:01:26.455Z,99527.91
2022-12-08T07:03:55.022Z,99532.67
2022-12-08T07:06:25.134Z,99529.25
2022-12-08T07:08:54.042Z,99530.11
2022-12-08T07:11:23.019Z,99529.97
2022-12-08T07:13:51.805Z,99528.46
2022-12-08T07:16:20.778Z,99534.66
2022-12-08T07:18:50.822Z,99534.89
2022-12-08T07:21:19.603Z,99531.83
2022-12-08T07:23:54.220Z,99534.82
2022-12-08T07:26:27.217Z,99533.11
2022-12-08T07:28:56.417Z,99533.59
2022-12-08T07:31:26.214Z,99534.33
2022-12-08T07:33:57.511Z,99533.38
2022-12-08T07:36:26.677Z,99533.65
2022-12-08T07:38:55.257Z,99532.63
2022-12-08T07:41:27.021Z,99534.29
2022-12-08T07:43:57.059Z,99529.04
2022-12-08T07:46:27.141Z,99533.98
2022-12-08T07:48:58.168Z,99537.10
2022-12-08T07:51:28.139Z,99537.03
2022-12-08T07:53:57.118Z,99535.95
2022-12-08T07:56:26.433Z,99537.83
2022-12-08T07:58:56.438Z,99537.92
2022-12-08T08:01:29.055Z,99539.25
2022-12-08T08:04:02.230Z,99541.19
2022-12-08T08:06:33.081Z,99544.38
2022-12-08T08:09:01.900Z,99545.26
2022-12-08T08:11:31.098Z,99545.55
2022-12-08T08:14:00.003Z,99546.79
2022-12-08T08:16:33.458Z,99545.51
2022-12-08T08:19:05.661Z,99542.75
2022-12-08T08:21:45.417Z,99543.25
2022-12-08T08:24:15.520Z,99539.65
2022-12-08T08:26:45.994Z,99539.36
2022-12-08T08:29:15.986Z,99540.22
2022-12-08T08:31:46.328Z,99539.05
2022-12-08T08:34:16.114Z,99536.77
2022-12-08T08:36:45.749Z,99536.02
2022-12-08T08:39:15.005Z,99535.93
2022-12-08T08:41:44.062Z,99541.39
2022-12-08T08:44:15.432Z,99543.63
2022-12-08T08:46:44.306Z,99543.60
2022-12-08T08:49:13.720Z,99538.33
2022-12-08T08:51:43.209Z,99539.58
2022-12-08T08:54:12.659Z,99533.65
2022-12-08T08:56:42.171Z,99529.73
2022-12-08T08:59:11.760Z,99527.04
2022-12-08T09:01:40.581Z,99526.70
2022-12-08T09:04:10.496Z,99527.59
2022-12-08T09:06:39.942Z,99525.61
2022-12-08T09:09:08.877Z,99523.84
2022-12-08T09:11:38.376Z,99524.60
2022-12-08T09:14:07.898Z,99523.96
2022-12-08T09:16:41.910Z,99521.86
2022-12-08T09:19:11.775Z,99526.05
2022-12-08T09:21:41.094Z,99522.45
2022-12-08T09:24:16.136Z,99523.00
2022-12-08T09:26:45.632Z,99520.70
2022-12-08T09:29:15.157Z,99520.34
2022-12-08T09:31:44.460Z,99519.48
2022-12-08T09:34:14.770Z,99517.36
2022-12-08T09:36:43.748Z,99517.30
2022-12-08T09:39:12.358Z,99517.31
2022-12-08T09:41:48.473Z,99511.97
2022-12-08T09:44:35.103Z,99509.42
2022-12-08T09:47:07.413Z,99505.94
2022-12-08T09:50:03.213Z,99508.20
2022-12-08T09:52:39.150Z,99505.49
2022-12-08T09:55:32.316Z,99506.15
2022-12-08T09:58:03.238Z,99505.91
2022-12-08T10:00:32.663Z,99499.02
2022-12-08T10:03:01.858Z,99499.09
2022-12-08T10:05:33.838Z,99498.77
2022-12-08T10:08:28.291Z,99495.38
2022-12-08T10:11:09.685Z,99493.75
2022-12-08T10:13:52.301Z,99487.60
2022-12-08T10:16:41.366Z,99489.80
2022-12-08T10:19:15.562Z,99488.65
2022-12-08T10:21:45.084Z,99485.65
2022-12-08T10:24:19.604Z,99484.61
2022-12-08T10:26:50.047Z,99484.39
2022-12-08T10:29:19.437Z,99476.50
2022-12-08T10:31:48.724Z,99478.01
2022-12-08T10:34:21.458Z,99471.96
2022-12-08T10:36:50.406Z,99473.45
2022-12-08T10:39:40.930Z,99468.56
2022-12-08T10:42:20.446Z,99465.49
2022-12-08T10:45:04.112Z,99465.33
2022-12-08T10:47:38.364Z,99466.20
2022-12-08T10:50:13.037Z,99464.17
2022-12-08T10:52:42.028Z,99463.33
2022-12-08T10:55:19.291Z,99462.52
2022-12-08T10:57:51.572Z,99466.27
2022-12-08T11:00:28.729Z,99464.20
2022-12-08T11:03:01.277Z,99460.54
2022-12-08T11:05:33.712Z,99459.08
2022-12-08T11:08:04.913Z,99457.02
2022-12-08T11:10:43.281Z,99459.71
2022-12-08T11:13:24.599Z,99461.23
2022-12-08T11:15:55.590Z,99453.09
2022-12-08T11:18:43.440Z,99447.44
2022-12-08T11:21:17.376Z,99451.35
2022-12-08T11:23:51.225Z,99454.30
2022-12-08T11:26:30.536Z,99449.30
2022-12-08T11:29:01.008Z,99448.11
2022-12-08T11:31:37.604Z,99444.63
2022-12-08T11:34:07.593Z,99445.88
2022-12-08T11:36:38.049Z,99446.34
2022-12-08T11:39:06.911Z,99444.23
2022-12-08T11:41:42.556Z,99448.55
2022-12-08T11:44:22.404Z,99445.33
2022-12-08T11:46:58.911Z,99444.80
2022-12-08T11:52:23.275Z,99443.03
2022-12-08T11:55:36.967Z,99435.63
2022-12-08T11:58:42.476Z,99431.65
2022-12-08T12:01:21.479Z,99431.02
2022-12-08T12:04:13.906Z,99424.08
2022-12-08T12:07:01.769Z,99420.98
2022-12-08T12:09:45.420Z,99420.58
2022-12-08T12:12:40.247Z,99416.15
2022-12-08T12:15:24.562Z,99419.02
2022-12-08T12:18:06.138Z,99420.02
2022-12-08T12:20:47.038Z,99417.10
2022-12-08T12:23:22.196Z,99417.41
2022-12-08T12:26:02.653Z,99417.58
2022-12-08T12:28:53.946Z,99420.50
2022-12-08T12:31:45.456Z,99415.03
2022-12-08T12:34:31.633Z,99416.79
2022-12-08T12:37:26.042Z,99419.65
2022-12-08T12:40:03.234Z,99414.46
2022-12-08T12:42:52.094Z,99414.79
2022-12-08T12:45:21.273Z,99416.31
2022-12-08T12:47:58.161Z,99414.91
2022-12-08T12:50:37.806Z,99415.15
2022-12-08T12:53:19.497Z,99412.05
2022-12-08T12:56:03.059Z,99411.33
2022-12-08T12:58:32.126Z,99407.94
2022-12-08T13:01:13.785Z,99405.95
2022-12-08T13:04:13.156Z,99407.34
2022-12-08T13:06:45.344Z,99403.80
2022-12-08T13:09:27.797Z,99400.67
2022-12-08T13:11:59.376Z,99403.34
2022-12-08T13:14:34.048Z,99406.52
2022-12-08T13:17:07.849Z,99403.05
2022-12-08T13:19:37.847Z,99404.93
2022-12-08T13:22:45.383Z,99401.28
2022-12-08T13:25:48.522Z,99405.38
2022-12-08T13:28:30.593Z,99402.27
2022-12-08T13:31:04.494Z,99402.85
2022-12-08T13:33:39.908Z,99403.73
2022-12-08T13:36:19.408Z,99402.66
2022-12-08T13:38:51.297Z,99402.42
2022-12-08T13:41:23.494Z,99402.41
2022-12-08T13:59:23.720Z,99395.18
2022-12-08T14:01:52.961Z,99385.98
2022-12-08T14:05:09.345Z,99388.30
2022-12-08T14:07:12.670Z,99384.13
2022-12-08T14:09:42.860Z,99389.47
2022-12-08T14:12:22.074Z,99390.62
2022-12-08T14:15:03.093Z,99388.35
2022-12-08T14:17:35.923Z,99393.55
2022-12-08T14:20:13.722Z,99392.77
2022-12-08T14:22:42.613Z,99390.00
2022-12-08T14:25:18.673Z,99392.13
2022-12-08T14:27:48.788Z,99390.02
2022-12-08T14:30:25.683Z,99390.80
2022-12-08T14:33:02.030Z,99390.69
2022-12-08T14:35:37.185Z,99391.55
2022-12-08T14:38:21.326Z,99391.42
2022-12-08T14:41:08.021Z,99389.73
2022-12-08T14:43:37.324Z,99391.67
2022-12-08T14:46:22.720Z,99391.08
2022-12-08T14:48:54.004Z,99392.16
2022-12-08T14:51:32.775Z,99391.50
2022-12-08T14:54:14.784Z,99389.35
2022-12-08T14:56:55.081Z,99391.45
2022-12-08T14:59:32.987Z,99396.02
2022-12-08T15:02:20.050Z,99399.73
2022-12-08T15:04:56.012Z,99398.20
2022-12-08T15:07:28.268Z,99398.60
2022-12-08T15:10:10.787Z,99399.41
2022-12-08T15:12:40.170Z,99404.67
2022-12-08T15:15:09.905Z,99408.61
2022-12-08T15:17:44.991Z,99407.19
2022-12-08T15:20:33.195Z,99403.96
2022-12-08T15:23:04.637Z,99405.80
2022-12-08T15:25:33.735Z,99403.14
2022-12-08T15:28:03.224Z,99405.70
2022-12-08T15:30:32.436Z,99403.29
2022-12-08T15:33:01.310Z,99406.30
2022-12-08T15:35:30.404Z,99405.17
2022-12-08T15:38:00.436Z,99409.08
2022-12-08T15:40:29.524Z,99411.15
2022-12-08T15:42:58.512Z,99407.55
2022-12-08T15:45:31.786Z,99408.19
2022-12-08T15:48:01.808Z,99406.75
2022-12-08T15:50:31.527Z,99406.79
2022-12-08T15:53:00.238Z,99412.83
2022-12-08T15:55:31.089Z,99407.29
2022-12-08T16:00:54.153Z,99409.60
2022-12-08T16:09:24.468Z,99406.98
2022-12-08T16:12:12.672Z,99402.44
2022-12-08T16:17:35.233Z,99399.85
2022-12-08T16:20:12.178Z,99399.58
2022-12-08T16:22:54.492Z,99399.56
2022-12-08T16:25:46.033Z,99399.71
2022-12-08T16:28:52.068Z,99401.31
2022-12-08T16:31:13.778Z,99400.95
2022-12-08T16:33:44.214Z,99400.89
2022-12-08T16:36:13.116Z,99400.92
2022-12-08T16:38:43.551Z,99402.11
2022-12-08T16:41:34.237Z,99402.94
2022-12-08T16:44:05.627Z,99402.89
2022-12-08T16:46:36.614Z,99404.61
2022-12-08T16:49:06.574Z,99406.27
2022-12-08T16:51:36.138Z,99404.58
2022-12-08T16:54:05.559Z,99402.08
2022-12-08T16:56:34.843Z,99400.88
2022-12-08T16:59:04.262Z,99400.61
2022-12-08T17:01:33.594Z,99397.03
2022-12-08T17:06:53.276Z,99390.39
2022-12-08T17:09:22.436Z,99388.49
2022-12-08T17:11:56.551Z,99387.48
2022-12-08T17:14:27.998Z,99382.73
2022-12-08T17:16:57.088Z,99381.41
2022-12-08T17:19:27.536Z,99378.41
2022-12-08T17:21:56.625Z,99379.42
2022-12-08T17:24:29.864Z,99374.29
2022-12-08T17:27:04.746Z,99374.00
2022-12-08T17:29:35.579Z,99378.56
2022-12-08T17:32:05.103Z,99380.72
2022-12-08T17:34:34.176Z,99383.89
2022-12-08T17:37:03.604Z,99385.24
2022-12-08T17:39:39.745Z,99386.42
2022-12-08T17:42:09.793Z,99390.58
2022-12-08T17:44:39.979Z,99394.42
2022-12-08T17:47:09.390Z,99396.63
2022-12-08T17:49:37.975Z,99397.15
2022-12-08T17:52:08.016Z,99398.83
2022-12-08T17:54:37.281Z,99394.66
2022-12-08T17:57:07.000Z,99390.95
2022-12-08T17:59:36.288Z,99393.05
2022-12-08T18:02:05.753Z,99394.06
2022-12-08T18:04:36.629Z,99393.58
2022-12-08T18:07:08.552Z,99394.45
2022-12-08T18:09:37.942Z,99395.08
2022-12-08T18:12:09.298Z,99395.36
2022-12-08T18:14:39.769Z,99394.04
2022-12-08T18:17:10.179Z,99395.86
2022-12-08T18:19:40.538Z,99393.98
2022-12-08T18:22:11.382Z,99395.33
2022-12-08T18:24:43.013Z,99397.47
2022-12-08T18:27:12.212Z,99394.17
2022-12-08T18:29:41.755Z,99397.84
2022-12-08T18:32:13.767Z,99394.95
2022-12-08T18:34:43.517Z,99396.84
2022-12-08T18:37:12.892Z,99398.94
2022-12-08T18:39:43.137Z,99402.95
2022-12-08T18:42:30.736Z,99404.81
2022-12-08T18:45:05.370Z,99405.75
2022-12-08T18:47:37.945Z,99401.47
2022-12-08T18:50:09.469Z,99401.73
2022-12-08T18:52:44.856Z,99400.24
2022-12-08T18:55:17.033Z,99404.44
2022-12-08T18:57:48.044Z,99402.45
2022-12-08T19:00:19.927Z,99397.37
2022-12-08T19:02:50.801Z,99398.16
2022-12-08T19:05:23.428Z,99400.23
2022-12-08T19:07:54.183Z,99401.63
2022-12-08T19:10:26.251Z,99406.94
2022-12-08T19:13:00.249Z,99399.81
2022-12-08T19:15:30.795Z,99402.34
2022-12-08T19:18:01.494Z,99400.06
2022-12-08T19:20:32.119Z,99400.30
2022-12-08T19:23:07.249Z,99400.41
2022-12-08T19:25:37.595Z,99399.64
2022-12-08T19:28:08.648Z,99402.29
2022-12-08T19:30:41.451Z,99399.14
2022-12-08T19:33:12.344Z,99397.02
2022-12-08T19:35:49.076Z,99396.41
2022-12-08T19:38:31.369Z,99400.23
2022-12-08T19:41:23.894Z,99399.48
2022-12-08T19:44:13.445Z,99398.39
2022-12-08T19:46:52.191Z,99394.36
2022-12-08T19:49:24.167Z,99395.51
2022-12-08T19:51:55.519Z,99392.75
2022-12-08T19:54:32.984Z,99391.77
2022-12-08T19:57:03.727Z,99390.08
2022-12-08T19:59:41.293Z,99387.85
2022-12-08T20:02:12.854Z,99385.25
2022-12-08T20:04:43.479Z,99385.25
2022-12-08T20:07:15.320Z,99380.48
2022-12-08T20:09:45.388Z,99378.69
2022-12-08T20:12:19.404Z,99380.05
2022-12-08T20:14:49.786Z,99379.22
2022-12-08T20:17:20.948Z,99384.63
2022-12-08T20:19:51.623Z,99385.48
2022-12-08T20:22:21.947Z,99388.64
2022-12-08T20:24:59.414Z,99389.23
2022-12-08T20:27:35.141Z,99388.07
2022-12-08T20:30:05.315Z,99392.19
2022-12-08T20:32:39.272Z,99398.64
2022-12-08T20:35:10.408Z,99401.20
2022-12-08T20:37:40.456Z,99403.14
2022-12-08T20:40:11.431Z,99396.52
2022-12-08T20:42:44.272Z,99396.67
2022-12-08T20:45:16.259Z,99394.89
2022-12-08T20:47:50.138Z,99396.51
2022-12-08T20:50:20.834Z,99399.00
2022-12-08T20:52:54.826Z,99402.27
2022-12-08T20:55:26.713Z,99405.22
2022-12-08T20:57:56.760Z,99399.35
2022-12-08T21:00:28.798Z,99404.86
2022-12-08T21:02:59.834Z,99405.84
2022-12-08T21:05:30.191Z,99400.05
2022-12-08T21:08:00.042Z,99401.92
2022-12-08T21:10:29.510Z,99399.67
2022-12-08T21:12:59.265Z,99399.28
2022-12-08T21:15:30.294Z,99398.36
2022-12-08T21:17:59.836Z,99397.20
2022-12-08T21:20:28.636Z,99398.02
2022-12-08T21:22:57.651Z,99401.31
2022-12-08T21:25:26.673Z,99394.61
2022-12-08T21:27:56.084Z,99396.09
2022-12-08T21:30:25.187Z,99392.56
2022-12-08T21:32:54.627Z,99390.52
2022-12-08T21:35:24.279Z,99392.46
2022-12-08T21:37:54.575Z,99391.55
2022-12-08T21:40:24.149Z,99398.73
2022-12-08T21:42:54.139Z,99401.77
2022-12-08T21:45:23.888Z,99401.23
2022-12-08T21:47:52.695Z,99404.95
2022-12-08T21:50:22.471Z,99400.52
2022-12-08T21:52:51.937Z,99399.40
2022-12-08T21:55:21.928Z,99399.23
2022-12-08T21:57:51.503Z,99400.84
2022-12-08T22:00:21.629Z,99400.48
2022-12-08T22:02:50.960Z,99401.06
2022-12-08T22:05:20.604Z,99401.88
2022-12-08T22:07:49.928Z,99394.73
2022-12-08T22:10:21.451Z,99395.77
2022-12-08T22:12:50.427Z,99394.11
2022-12-08T22:15:21.457Z,99394.79
2022-12-08T22:17:50.894Z,99394.29
2022-12-08T22:20:20.092Z,99393.27
2022-12-08T22:22:49.941Z,99393.91
2022-12-08T22:25:19.188Z,99392.41
2022-12-08T22:27:49.004Z,99387.72
2022-12-08T22:30:18.363Z,99386.21
2022-12-08T22:32:49.181Z,99383.08
2022-12-08T22:35:18.692Z,99381.08
2022-12-08T22:37:51.307Z,99382.66
2022-12-08T22:40:21.246Z,99384.42
2022-12-08T22:42:50.592Z,99383.48
2022-12-08T22:45:20.077Z,99381.67
2022-12-08T22:47:49.308Z,99382.51
2022-12-08T22:50:19.121Z,99388.20
2022-12-08T22:52:48.428Z,99388.41
2022-12-08T22:55:17.960Z,99394.53
2022-12-08T22:57:47.957Z,99392.67
2022-12-08T23:00:19.079Z,99390.62
2022-12-08T23:02:48.166Z,99388.46
2022-12-08T23:05:17.911Z,99390.54
2022-12-08T23:07:47.064Z,99390.05
2022-12-08T23:10:16.090Z,99388.30
2022-12-08T23:12:45.177Z,99386.51
2022-12-08T23:15:13.920Z,99386.64
2022-12-08T23:17:42.958Z,99387.85
2022-12-08T23:20:12.962Z,99386.46
2022-12-08T23:22:41.763Z,99390.14
2022-12-08T23:25:10.430Z,99392.73
2022-12-08T23:27:39.115Z,99388.89
2022-12-08T23:30:09.368Z,99393.10
2022-12-08T23:32:39.026Z,99393.55
2022-12-08T23:35:08.603Z,99391.48
2022-12-08T23:37:37.449Z,99394.58
2022-12-08T23:40:07.716Z,99392.79
2022-12-08T23:42:36.838Z,99389.80
2022-12-08T23:45:08.550Z,99390.68
2022-12-08T23:47:37.690Z,99393.03
2022-12-08T23:50:07.925Z,99393.15
2022-12-08T23:52:39.334Z,99399.54
2022-12-08T23:55:09.440Z,99404.40
2022-12-08T23:57:39.320Z,99405.78
